Latest Coastal Weather Observations for Port Macquarie Airport

IDN60701

Issued at 2:35 pm EDT Wednesday 22 October 2014 (issued every 10 minutes, with the page automatically refreshed every 10 minutes)

About coastal observations | Map of coastal stations | Coastal observations for NSW | Marine services | Other Formats
Station Details ID: 060139 Name: PORT MACQUARIE AIRPORT AWS Lat: -31.43 Lon: 152.87 Height: 4.2 m
Data from the previous 72 hours. | See also: Recent months at Port Macquarie Airport
Date/Time
EDT
Temp

°C
Wind Pressure Rain
since 9am
mm
Weather Cloud Vis
km
Sea
Height
m
Swell
Dir
 
Speed
knots
Gust
knots
hPa Trend Height
m
Period
s
Dir
22/02:30pm 21.0 E 11 15 1023.8 - 0.2 - - 10 - - - -
22/02:00pm 20.9 ENE 12 15 1024.2 - 0.2 - - 10 - - - -
22/01:30pm 21.5 ENE 11 15 1024.6 - 0.2 - - 10 - - - -
22/01:00pm 22.3 ENE 9 14 1025.1 - 0.2 - - 10 - - - -
22/12:30pm 21.5 ENE 7 10 1025.6 - 0.2 - Partly cloudy 10 - - - -
22/12:00pm 20.1 N 6 9 1026.0 - 0.2 - Partly cloudy 10 - - - -
22/11:30am 20.8 N 6 8 1026.3 - 0.2 - Partly cloudy 10 - - - -
22/11:00am 20.8 NE 5 9 1026.8 - 0.2 - Cloudy 10 - - - -
22/10:30am 19.9 NNE 4 7 1027.1 - 0.2 - Cloudy 10 - - - -
22/10:00am 19.1 NW 3 5 1027.4 - 0.2 - Cloudy 10 - - - -
22/09:30am 18.5 W 5 8 1027.3 - 0.0 - Cloudy 10 - - - -
22/09:00am 16.8 W 6 8 1027.4 - 0.8 - Cloudy 10 - - - -
22/08:30am 15.9 W 7 9 1027.3 - 0.8 - Cloudy 10 - - - -
22/08:00am 15.2 W 5 10 1027.3 - 0.8 - Cloudy 10 - - - -
22/07:30am 14.5 W 6 10 1027.2 - 0.8 - Cloudy 10 - - - -
22/07:00am 14.2 W 6 9 1027.1 - 0.8 - Partly cloudy 10 - - - -
22/06:30am 13.9 W 7 11 1027.0 - 0.8 - Cloudy 10 - - - -
22/06:00am 13.5 W 6 7 1027.0 - 0.8 - Cloudy 10 - - - -
22/05:30am 13.2 SW 5 6 1026.9 - 0.8 - Partly cloudy 10 - - - -
22/05:00am 13.2 W 5 7 1026.9 - 0.8 - Partly cloudy 10 - - - -
22/04:30am 13.6 W 6 8 1027.0 - 0.8 - Partly cloudy 10 - - - -
22/04:00am 13.8 W 4 6 1027.3 - 0.8 - Partly cloudy 10 - - - -
22/03:30am 14.0 WNW 7 9 1027.5 - 0.8 - Cloudy 10 - - - -
22/03:00am 14.1 NW 6 7 1028.0 - 0.8 - Cloudy 10 - - - -
22/02:30am 14.4 NW 3 5 1028.5 - 0.8 - Partly cloudy 10 - - - -
22/02:00am 14.2 SSW 1 4 1028.7 - 0.8 - Partly cloudy 10 - - - -
22/01:30am 14.0 S 3 5 1029.0 - 0.8 - Partly cloudy 10 - - - -
22/01:00am 14.7 NW 6 8 1029.1 - 0.8 - Partly cloudy 10 - - - -
22/12:30am 15.0 WSW 3 6 1029.7 - 0.8 - Partly cloudy 10 - - - -
22/12:00am 15.3 W 3 6 1030.0 - 0.8 Recent precip. Cloudy 10 - - - -
 
Date/Time
EDT
Temp

°C
Wind Pressure Rain
since 9am
mm
Weather Cloud Vis
km
Sea
Height
m
Swell
Dir
 
Speed
knots
Gust
knots
hPa Trend Height
m
Period
s
Dir
21/11:30pm 15.3 ESE 7 10 1030.2 - 0.8 - Partly cloudy 7 - - - -
21/11:00pm 15.1 W 3 4 1030.1 - 0.0 - Partly cloudy 10 - - - -
21/10:30pm 14.9 W 4 5 1030.3 - 0.0 - Partly cloudy 10 - - - -
21/10:00pm 14.5 CALM 0 0 1030.3 - 0.0 - Cloudy 10 - - - -
21/09:30pm 14.6 CALM 0 0 1030.3 - 0.0 - Cloudy 10 - - - -
21/09:00pm 14.5 WSW 3 4 1030.2 - 0.0 - Cloudy 10 - - - -
21/08:30pm 15.9 SSW 4 4 1030.1 - 0.0 - Cloudy 10 - - - -
21/08:00pm 16.1 SSW 4 4 1029.9 - 0.0 - Partly cloudy 10 - - - -
21/07:30pm 15.8 S 4 6 1029.6 - 0.0 - - 10 - - - -
21/07:00pm 16.8 S 6 8 1029.5 - 0.0 - Partly cloudy 10 - - - -
21/06:30pm 17.7 S 6 9 1029.2 - 0.0 - Partly cloudy 10 - - - -
21/06:00pm 17.9 S 9 13 1029.0 - 0.0 - - 10 - - - -
21/05:30pm 19.0 SSE 11 15 1028.9 - 0.0 - - 10 - - - -
21/05:00pm 19.4 SE 12 15 1028.8 - 0.0 - - 10 - - - -
21/04:30pm 19.8 S 12 18 1028.9 - 0.0 - Partly cloudy 10 - - - -
21/04:00pm 20.1 SSE 12 17 1028.9 - 0.0 - Partly cloudy 10 - - - -
21/03:30pm 20.4 SSE 10 16 1029.0 - 0.0 - Partly cloudy 10 - - - -
21/03:00pm 20.1 S 12 17 1029.3 - 0.0 - - 10 - - - -
21/02:30pm 20.4 SE 11 15 1029.6 - 0.0 - Partly cloudy 10 - - - -
21/02:00pm 20.5 S 12 21 1030.1 - 0.0 - Partly cloudy 10 - - - -
21/01:30pm 20.6 S 12 20 1030.3 - 0.0 - Partly cloudy 10 - - - -
21/01:00pm 20.4 SSE 12 18 1030.6 - 0.0 - Partly cloudy 10 - - - -
21/12:30pm 19.6 S 12 16 1030.7 - 0.0 - Partly cloudy 10 - - - -
21/12:00pm 19.5 S 11 16 1030.9 - 0.0 - Cloudy 10 - - - -
21/11:30am 19.1 S 10 16 1030.9 - 0.0 - Partly cloudy 10 - - - -
21/11:00am 19.3 S 11 15 1031.0 - 0.0 - Partly cloudy 10 - - - -
21/10:30am 19.3 SSW 12 17 1031.2 - 0.0 - Partly cloudy 10 - - - -
21/10:00am 18.4 S 8 12 1031.3 - 0.0 - Cloudy 10 - - - -
21/09:30am 17.7 S 8 12 1031.3 - 0.0 - Cloudy 10 - - - -
21/09:00am 16.8 SW 6 8 1031.1 - 4.4 - Cloudy 10 - - - -
21/08:30am 16.1 WSW 6 8 1030.8 - 4.4 - Partly cloudy 10 - - - -
21/08:00am 15.9 WSW 5 6 1030.6 - 4.4 - Partly cloudy 10 - - - -
21/07:30am 15.7 WSW 5 6 1030.2 - 4.4 - Cloudy 10 - - - -
21/07:00am 15.3 SW 5 8 1029.9 - 4.4 - Cloudy 10 - - - -
21/06:30am 15.4 SSW 5 7 1029.7 - 4.4 - Cloudy 10 - - - -
21/06:00am 16.0 S 6 9 1029.4 - 4.4 - Cloudy 10 - - - -
21/05:30am 15.6 S 8 12 1029.1 - 4.4 - Partly cloudy 10 - - - -
21/05:00am 14.5 SSW 6 8 1028.9 - 4.4 - Partly cloudy 10 - - - -
21/04:30am 14.8 SSW 5 7 1028.9 - 4.4 - Partly cloudy 10 - - - -
21/04:00am 14.7 SSW 5 7 1028.9 - 4.4 - Partly cloudy 10 - - - -
21/03:30am 14.9 SSW 7 9 1029.0 - 4.4 - Partly cloudy 10 - - - -
21/03:00am 15.1 SSW 7 10 1029.1 - 4.4 Rain Cloudy 10 - - - -
21/02:30am 15.1 SSW 7 8 1029.1 - 4.2 - Partly cloudy 10 - - - -
21/02:00am 15.2 SSW 7 11 1029.4 - 4.2 - Partly cloudy 10 - - - -
21/01:30am 15.5 SW 7 10 1029.6 - 4.0 - Partly cloudy 9 - - - -
21/01:00am 15.5 SW 8 11 1029.6 - 3.8 - Partly cloudy 10 - - - -
21/12:30am 15.8 WSW 9 12 1030.0 - 3.8 - Partly cloudy 10 - - - -
21/12:00am 15.7 SW 7 9 1030.2 - 3.4 Rain Cloudy 6 - - - -
 
Date/Time
EDT
Temp

°C
Wind Pressure Rain
since 9am
mm
Weather Cloud Vis
km
Sea
Height
m
Swell
Dir
 
Speed
knots
Gust
knots
hPa Trend Height
m
Period
s
Dir
20/11:30pm 16.0 SW 6 9 1030.3 - 2.6 - Partly cloudy 8 - - - -
20/11:00pm 16.2 WSW 5 7 1030.2 - 2.6 - Partly cloudy 10 - - - -
20/10:30pm 16.6 S 10 13 1030.4 - 2.2 - Partly cloudy 7 - - - -
20/10:00pm 16.7 SW 6 8 1030.1 - 2.0 - Partly cloudy 10 - - - -
20/09:30pm 16.8 SW 7 11 1029.9 - 2.0 - Partly cloudy 10 - - - -
20/09:00pm 16.7 SW 7 11 1029.4 - 2.0 Recent precip. Mostly cloudy 10 - - - -
20/08:30pm 16.8 SW 8 9 1029.0 - 2.0 - Partly cloudy 10 - - - -
20/08:00pm 16.9 SSW 9 14 1028.7 - 1.8 - Cloudy 9 - - - -
20/07:46pm 17.4 SSW 8 11 1028.5 - 1.8 - Partly cloudy 10 - - - -
20/07:30pm 17.1 SW 9 12 1028.3 - 1.6 - Partly cloudy 5 - - - -
20/07:23pm 17.3 SSW 11 14 1028.3 - 1.2 - Partly cloudy 5 - - - -
20/07:22pm 17.3 SSW 10 14 1028.2 - 1.2 - Partly cloudy 5 - - - -
20/07:10pm 17.4 SSW 10 13 1028.1 - 0.6 - Partly cloudy 5 - - - -
20/07:06pm 17.4 SW 10 13 1028.0 - 0.4 - Partly cloudy 7 - - - -
20/07:02pm 17.5 SSW 10 13 1027.9 - 0.2 - Partly cloudy 8 - - - -
20/07:01pm 17.5 SSW 10 13 1027.9 - 0.2 - Partly cloudy 7 - - - -
20/07:00pm 17.6 SSW 9 12 1027.9 - 0.2 - Partly cloudy 7 - - - -
20/06:52pm 17.7 SSW 9 13 1027.7 - 0.2 - Partly cloudy 5 - - - -
20/06:30pm 18.5 S 13 18 1027.5 - 0.0 - Partly cloudy 10 - - - -
20/06:00pm 19.7 SSW 15 21 1027.2 - 0.0 - Mostly cloudy 10 - - - -
20/05:30pm 20.2 SSW 13 18 1026.9 - 0.0 - Partly cloudy 10 - - - -
20/05:00pm 20.1 SSW 13 19 1027.0 - 0.0 - Cloudy 10 - - - -
20/04:30pm 20.3 SSW 13 18 1026.8 - 0.0 - Partly cloudy 10 - - - -
20/04:00pm 20.4 SSW 15 24 1026.8 - 0.0 - Partly cloudy 10 - - - -
20/03:30pm 20.6 SW 18 25 1026.7 - 0.0 - Partly cloudy 10 - - - -
20/03:00pm 20.1 SSW 20 28 1026.8 - 0.0 - Cloudy 10 - - - -
20/02:37pm 20.7 S 18 28 1026.6 - 0.0 - Partly cloudy 10 - - - -
20/02:30pm 20.6 S 17 24 1026.6 - 0.0 - Partly cloudy 10 - - - -
20/02:02pm 20.6 SSW 19 29 1026.7 - 0.0 - Partly cloudy 10 - - - -
20/02:00pm 20.8 S 18 27 1026.6 - 0.0 - Partly cloudy 10 - - - -
20/01:45pm 21.0 S 19 30 1026.4 - 0.0 - - 10 - - - -
20/01:30pm 21.6 S 21 29 1026.3 - 0.0 - - 10 - - - -
20/01:06pm 23.7 SSW 23 33 1025.9 - 0.0 - - 10 - - - -
20/01:05pm 23.4 SSW 22 32 1026.0 - 0.0 - - 10 - - - -
20/01:00pm 23.2 SSW 23 32 1025.9 - 0.0 - - 10 - - - -
20/12:32pm 23.0 SSW 19 30 1025.7 - 0.0 - - 10 - - - -
20/12:30pm 23.4 SSW 18 25 1025.7 - 0.0 - - 10 - - - -
20/12:00pm 25.4 SSW 15 25 1025.4 - 0.0 - - 10 - - - -
20/11:48am 24.4 S 16 27 1025.4 - 0.0 - - 10 - - - -
20/11:30am 23.3 S 17 22 1025.5 - 0.0 - - 10 - - - -
20/11:00am 24.9 S 11 16 1025.2 - 0.0 - - 10 - - - -
20/10:30am 23.5 N 3 5 1024.3 - 0.0 - - 10 - - - -
20/10:00am 21.6 WNW 3 5 1024.4 - 0.0 - - 10 - - - -
20/09:30am 20.2 N 3 6 1024.3 - 0.0 - - 10 - - - -
20/09:00am 18.3 NW 1 5 1024.1 - 0.0 - - 10 - - - -
20/08:30am 16.1 WNW 3 5 1024.0 - 0.0 - - 10 - - - -
20/08:00am 14.4 WNW 4 5 1023.9 - 0.0 - - 10 - - - -
20/07:30am 13.0 NW 3 4 1023.6 - 0.0 - - 10 - - - -
20/07:00am 11.7 NW 3 4 1023.7 - 0.0 - - 10 - - - -
20/06:30am 11.1 N 1 4 1023.3 - 0.0 - - 10 - - - -
20/06:00am 9.2 CALM 0 0 1023.2 - 0.0 - - 10 - - - -
20/05:30am 9.6 CALM 0 0 1022.9 - 0.0 - - 10 - - - -
20/05:00am 9.3 CALM 0 0 1022.7 - 0.0 - - 10 - - - -
20/04:58am 9.3 CALM 0 0 1022.7 - 0.0 - - 10 - - - -
20/04:42am 10.0 CALM 0 0 1022.7 - 0.0 - - 5 - - - -
20/04:30am 9.8 CALM 0 0 1022.6 - 0.0 - - 10 - - - -
20/04:00am 10.4 CALM 0 1 1022.7 - 0.0 - - 10 - - - -
20/03:30am 10.7 CALM 0 1 1023.1 - 0.0 - - 10 - - - -
20/03:00am 10.8 NNW 4 5 1023.3 - 0.0 - - 10 - - - -
20/02:30am 10.9 NW 2 5 1023.7 - 0.0 - - 10 - - - -
20/02:00am 11.3 CALM 0 2 1023.9 - 0.0 - - 10 - - - -
20/01:30am 12.0 N 4 6 1024.2 - 0.0 - - 10 - - - -
20/01:00am 12.0 N 3 4 1024.7 - 0.0 - - 10 - - - -
20/12:30am 12.8 N 3 3 1025.1 - 0.0 - - 10 - - - -
20/12:00am 13.1 N 3 3 1025.5 - 0.0 - - 10 - - - -
 
Date/Time
EDT
Temp

°C
Wind Pressure Rain
since 9am
mm
Weather Cloud Vis
km
Sea
Height
m
Swell
Dir
 
Speed
knots
Gust
knots
hPa Trend Height
m
Period
s
Dir
19/11:30pm 13.3 N 4 4 1025.6 - 0.0 - - 10 - - - -
19/11:00pm 14.4 N 4 5 1025.7 - 0.0 - - 10 - - - -
19/10:30pm 13.5 NNW 4 5 1025.8 - 0.0 - - 10 - - - -
19/10:00pm 14.5 N 4 5 1025.9 - 0.0 - - 10 - - - -
19/09:30pm 15.4 N 4 5 1025.9 - 0.0 - - 10 - - - -
19/09:00pm 17.0 N 5 6 1025.7 - 0.0 - - 10 - - - -
19/08:30pm 17.3 N 4 6 1025.4 - 0.0 - - 10 - - - -
19/08:00pm 17.8 N 6 7 1025.2 - 0.0 - - 10 - - - -
19/07:30pm 18.7 NNE 6 8 1024.9 - 0.0 - - 10 - - - -
19/07:00pm 19.1 NNE 7 10 1024.7 - 0.0 - - 10 - - - -
19/06:30pm 19.9 NE 9 12 1024.6 - 0.0 - - 10 - - - -
19/06:00pm 20.3 NE 10 14 1024.3 - 0.0 - - 10 - - - -
19/05:30pm 20.8 NE 11 16 1024.0 - 0.0 - - 10 - - - -
19/05:00pm 21.2 NE 11 16 1023.9 - 0.0 - - 10 - - - -
19/04:30pm 21.1 NE 11 15 1023.9 - 0.0 - - 10 - - - -
19/04:00pm 21.6 NE 13 17 1024.1 - 0.0 - - 10 - - - -
19/03:30pm 21.3 NE 13 17 1024.2 - 0.0 - - 10 - - - -
19/03:00pm 21.9 NE 12 16 1024.6 - 0.0 - - 10 - - - -

Other Formats:

Comma delimited format used in spreadsheet applications
http://www.bom.gov.au/fwo/IDN60701/IDN60701.94786.axf

JavaScript Object Notation format (JSON) in row-major order
http://www.bom.gov.au/fwo/IDN60701/IDN60701.94786.json